createdAt,value
2022-08-02T00:00:56.066Z,20.1
2022-08-02T00:01:55.901Z,20.13
2022-08-02T00:02:55.854Z,20.13
2022-08-02T00:03:55.835Z,20.16
2022-08-02T00:04:55.840Z,20.14
2022-08-02T00:05:55.830Z,20.14
2022-08-02T00:06:55.874Z,20.14
2022-08-02T00:07:55.853Z,20.19
2022-08-02T00:08:55.827Z,20.21
2022-08-02T00:09:55.826Z,20.21
2022-08-02T00:10:55.824Z,20.22
2022-08-02T00:11:55.877Z,20.15
2022-08-02T00:12:55.835Z,20.13
2022-08-02T00:13:55.832Z,20.04
2022-08-02T00:14:55.837Z,20.04
2022-08-02T00:15:55.844Z,19.97
2022-08-02T00:16:55.846Z,20.03
2022-08-02T00:17:55.852Z,19.99
2022-08-02T00:18:55.823Z,20.02
2022-08-02T00:19:55.826Z,20.05
2022-08-02T00:20:55.820Z,20.01
2022-08-02T00:21:55.837Z,20.01
2022-08-02T00:22:55.860Z,20
2022-08-02T00:24:29.190Z,20
2022-08-02T00:24:55.829Z,19.96
2022-08-02T00:25:56.082Z,19.83
2022-08-02T00:26:55.855Z,19.83
2022-08-02T00:27:55.844Z,19.86
2022-08-02T00:28:55.848Z,19.84
2022-08-02T00:29:55.841Z,19.84
2022-08-02T00:30:55.872Z,19.65
2022-08-02T00:31:55.898Z,19.55
2022-08-02T00:32:55.851Z,19.52
2022-08-02T00:34:28.117Z,19.57
2022-08-02T00:34:55.844Z,19.54
2022-08-02T00:35:55.833Z,19.59
2022-08-02T00:36:55.869Z,19.59
2022-08-02T00:37:55.824Z,19.57
2022-08-02T00:38:55.856Z,19.47
2022-08-02T00:39:55.821Z,19.42
2022-08-02T00:40:58.136Z,19.42
2022-08-02T00:41:55.844Z,19.46
2022-08-02T00:42:55.832Z,19.45
2022-08-02T00:43:55.824Z,19.45
2022-08-02T00:44:55.830Z,19.44
2022-08-02T00:46:02.443Z,19.45
2022-08-02T00:46:55.837Z,19.46
2022-08-02T00:47:55.823Z,19.36
2022-08-02T00:48:55.893Z,19.34
2022-08-02T00:49:55.827Z,19.25
2022-08-02T00:50:55.825Z,19.24
2022-08-02T00:51:55.836Z,19.25
2022-08-02T00:52:55.829Z,19.17
2022-08-02T00:53:55.836Z,19.14
2022-08-02T00:54:55.826Z,19.09
2022-08-02T00:55:55.837Z,18.94
2022-08-02T00:56:55.839Z,18.88
2022-08-02T00:57:55.862Z,18.8
2022-08-02T00:58:55.833Z,18.76
2022-08-02T00:59:55.836Z,18.78
2022-08-02T01:00:55.839Z,18.85
2022-08-02T01:01:58.128Z,18.69
2022-08-02T01:02:55.826Z,18.64
2022-08-02T01:03:55.828Z,18.64
2022-08-02T01:04:55.844Z,18.59
2022-08-02T01:06:55.885Z,18.56
2022-08-02T01:07:55.837Z,18.59
2022-08-02T01:08:55.835Z,18.65
2022-08-02T01:09:55.851Z,18.71
2022-08-02T01:10:55.834Z,18.67
2022-08-02T01:11:55.838Z,18.74
2022-08-02T01:12:55.821Z,18.82
2022-08-02T01:13:55.822Z,18.83
2022-08-02T01:14:55.827Z,18.77
2022-08-02T01:15:55.876Z,18.75
2022-08-02T01:16:55.833Z,18.66
2022-08-02T01:17:55.828Z,18.62
2022-08-02T01:18:55.829Z,18.57
2022-08-02T01:19:55.829Z,18.49
2022-08-02T01:20:55.828Z,18.5
2022-08-02T01:21:55.839Z,18.52
2022-08-02T01:23:01.506Z,18.42
2022-08-02T01:23:55.825Z,18.34
2022-08-02T01:24:55.831Z,18.38
2022-08-02T01:25:55.825Z,18.38
2022-08-02T01:26:55.842Z,18.49
2022-08-02T01:27:55.824Z,18.54
2022-08-02T01:28:55.821Z,18.45
2022-08-02T01:29:55.836Z,18.44
2022-08-02T01:30:55.860Z,18.45
2022-08-02T01:31:55.834Z,18.47
2022-08-02T01:32:55.823Z,18.36
2022-08-02T01:33:55.820Z,18.33
2022-08-02T01:34:55.848Z,18.28
2022-08-02T01:35:55.827Z,18.34
2022-08-02T01:36:55.842Z,18.38
2022-08-02T01:37:55.825Z,18.39
2022-08-02T01:38:55.830Z,18.3
2022-08-02T01:39:55.830Z,18.33
2022-08-02T01:40:55.824Z,18.38
2022-08-02T01:41:58.944Z,18.49
2022-08-02T01:42:55.834Z,18.58
2022-08-02T01:43:55.835Z,18.64
2022-08-02T01:44:55.823Z,18.54
2022-08-02T01:45:55.848Z,18.54
2022-08-02T01:46:55.832Z,18.71
2022-08-02T01:47:55.850Z,18.72
2022-08-02T01:48:55.856Z,18.74
2022-08-02T01:49:55.844Z,18.85
2022-08-02T01:50:55.823Z,18.89
2022-08-02T01:51:55.850Z,18.88
2022-08-02T01:52:55.840Z,18.92
2022-08-02T01:53:55.838Z,18.93
2022-08-02T01:54:55.834Z,19.05
2022-08-02T01:55:58.504Z,19.05
2022-08-02T01:56:55.837Z,18.98
2022-08-02T01:57:55.823Z,18.89
2022-08-02T01:58:55.823Z,18.81
2022-08-02T01:59:55.832Z,18.75
2022-08-02T02:00:55.930Z,18.67
2022-08-02T02:01:55.892Z,18.64
2022-08-02T02:02:55.824Z,18.54
2022-08-02T02:03:55.840Z,18.47
2022-08-02T02:04:55.847Z,18.41
2022-08-02T02:05:55.831Z,18.43
2022-08-02T02:06:55.838Z,18.46
2022-08-02T02:07:55.825Z,18.5
2022-08-02T02:08:55.826Z,18.55
2022-08-02T02:09:55.826Z,18.64
2022-08-02T02:10:55.828Z,18.73
2022-08-02T02:12:06.258Z,18.68
2022-08-02T02:12:55.830Z,18.66
2022-08-02T02:13:55.848Z,18.67
2022-08-02T02:14:55.855Z,18.72
2022-08-02T02:15:55.859Z,18.77
2022-08-02T02:16:55.867Z,18.86
2022-08-02T02:18:13.229Z,18.76
2022-08-02T02:18:55.847Z,18.77
2022-08-02T02:19:55.834Z,18.73
2022-08-02T02:20:55.828Z,18.67
2022-08-02T02:21:55.845Z,18.59
2022-08-02T02:22:55.829Z,18.56
2022-08-02T02:23:55.832Z,18.62
2022-08-02T02:24:55.834Z,18.68
2022-08-02T02:25:56.031Z,18.65
2022-08-02T02:26:55.849Z,18.63
2022-08-02T02:27:55.836Z,18.63
2022-08-02T02:28:55.831Z,18.67
2022-08-02T02:29:55.848Z,18.7
2022-08-02T02:30:55.855Z,18.67
2022-08-02T02:31:55.843Z,18.63
2022-08-02T02:32:55.825Z,18.53
2022-08-02T02:33:55.835Z,18.53
2022-08-02T02:34:55.833Z,18.46
2022-08-02T02:35:55.836Z,18.46
2022-08-02T02:36:55.853Z,18.54
2022-08-02T02:37:55.839Z,18.59
2022-08-02T02:38:55.857Z,18.61
2022-08-02T02:39:55.846Z,18.61
2022-08-02T02:40:55.851Z,18.69
2022-08-02T02:41:55.841Z,18.71
2022-08-02T02:42:55.895Z,18.65
2022-08-02T02:43:55.828Z,18.56
2022-08-02T02:44:55.826Z,18.51
2022-08-02T02:45:55.997Z,18.35
2022-08-02T02:46:55.839Z,18.38
2022-08-02T02:47:55.828Z,18.27
2022-08-02T02:48:55.888Z,18.27
2022-08-02T02:49:55.839Z,18.32
2022-08-02T02:50:55.836Z,18.38
2022-08-02T02:51:55.859Z,18.42
2022-08-02T02:52:55.839Z,18.49
2022-08-02T02:54:32.580Z,18.5
2022-08-02T02:54:55.848Z,18.56
2022-08-02T02:56:02.062Z,18.6
2022-08-02T02:56:55.850Z,18.74
2022-08-02T02:57:55.835Z,18.84
2022-08-02T02:58:55.826Z,18.9
2022-08-02T02:59:55.834Z,18.91
2022-08-02T03:00:55.951Z,18.92
2022-08-02T03:01:57.876Z,18.97
2022-08-02T03:02:55.827Z,19.02
2022-08-02T03:03:55.848Z,19.04
2022-08-02T03:04:57.963Z,19.08
2022-08-02T03:05:55.831Z,19.1
2022-08-02T03:06:55.849Z,19.13
2022-08-02T03:07:55.833Z,19.13
2022-08-02T03:08:55.831Z,19.13
2022-08-02T03:09:55.870Z,19.05
2022-08-02T03:10:55.833Z,18.95
2022-08-02T03:11:55.843Z,18.78
2022-08-02T03:12:55.834Z,18.78
2022-08-02T03:13:55.838Z,18.75
2022-08-02T03:14:55.834Z,18.72
2022-08-02T03:15:55.845Z,18.75
2022-08-02T03:16:55.845Z,18.83
2022-08-02T03:17:55.837Z,18.81
2022-08-02T03:18:55.845Z,18.74
2022-08-02T03:19:55.862Z,18.67
2022-08-02T03:20:55.845Z,18.59
2022-08-02T03:21:57.433Z,18.52
2022-08-02T03:22:55.829Z,18.3
2022-08-02T03:23:55.831Z,18.18
2022-08-02T03:24:55.827Z,18.03
2022-08-02T03:25:55.828Z,18.01
2022-08-02T03:26:55.846Z,17.99
2022-08-02T03:27:55.828Z,18.08
2022-08-02T03:28:55.836Z,18.13
2022-08-02T03:29:55.829Z,18.22
2022-08-02T03:30:55.868Z,18.22
2022-08-02T03:31:55.848Z,18.23
2022-08-02T03:32:55.836Z,18.2
2022-08-02T03:33:55.842Z,18.06
2022-08-02T03:34:55.827Z,18.1
2022-08-02T03:35:55.861Z,18.12
2022-08-02T03:36:55.846Z,18.18
2022-08-02T03:37:55.844Z,18.15
2022-08-02T03:38:55.839Z,18.25
2022-08-02T03:39:55.833Z,18.29
2022-08-02T03:40:55.833Z,18.29
2022-08-02T03:41:55.860Z,18.31
2022-08-02T03:42:55.828Z,18.31
2022-08-02T03:43:55.835Z,18.33
2022-08-02T03:44:55.837Z,18.36
2022-08-02T03:45:55.938Z,18.4
2022-08-02T03:46:55.845Z,18.48
2022-08-02T03:47:58.838Z,18.55
2022-08-02T03:48:55.895Z,18.64
2022-08-02T03:49:55.832Z,18.64
2022-08-02T03:50:55.832Z,18.82
2022-08-02T03:51:55.847Z,18.82
2022-08-02T03:52:55.831Z,18.84
2022-08-02T03:53:55.828Z,18.91
2022-08-02T03:54:55.830Z,19.02
2022-08-02T03:55:56.073Z,19.16
2022-08-02T03:56:55.847Z,19.35
2022-08-02T03:57:55.835Z,19.57
2022-08-02T03:58:55.841Z,19.68
2022-08-02T03:59:55.835Z,19.71
2022-08-02T04:00:55.917Z,19.78
2022-08-02T04:01:55.839Z,19.86
2022-08-02T04:02:55.835Z,20
2022-08-02T04:03:55.828Z,20.16
2022-08-02T04:04:55.837Z,20.15
2022-08-02T04:06:03.691Z,20.3
2022-08-02T04:06:55.848Z,20.43
2022-08-02T04:08:02.493Z,20.56
2022-08-02T04:08:55.835Z,20.67
2022-08-02T04:09:55.836Z,20.78
2022-08-02T04:10:55.834Z,20.82
2022-08-02T04:11:55.848Z,20.77
2022-08-02T04:12:55.839Z,20.82
2022-08-02T04:13:56.967Z,20.86
2022-08-02T04:14:55.824Z,20.88
2022-08-02T04:15:55.889Z,20.85
2022-08-02T04:16:55.838Z,20.83
2022-08-02T04:17:55.823Z,20.89
2022-08-02T04:18:55.826Z,21.06
2022-08-02T04:19:55.821Z,21.15
2022-08-02T04:20:55.824Z,21.2
2022-08-02T04:21:55.851Z,21.2
2022-08-02T04:22:55.836Z,21.16
2022-08-02T04:23:55.824Z,21.12
2022-08-02T04:24:55.832Z,21.08
2022-08-02T04:25:55.834Z,21.02
2022-08-02T04:26:58.113Z,20.99
2022-08-02T04:28:16.500Z,20.96
2022-08-02T04:28:55.823Z,20.91
2022-08-02T04:29:55.838Z,20.88
2022-08-02T04:30:55.846Z,20.85
2022-08-02T04:31:55.841Z,20.81
2022-08-02T04:32:55.822Z,18.41
2022-08-02T04:33:55.826Z,20.83
2022-08-02T04:35:18.708Z,20.85
2022-08-02T04:35:59.593Z,20.87
2022-08-02T04:36:55.844Z,20.89
2022-08-02T04:38:08.470Z,20.92
2022-08-02T04:38:55.823Z,20.81
2022-08-02T04:39:55.824Z,20.81
2022-08-02T04:40:55.827Z,20.72
2022-08-02T04:41:57.752Z,20.66
2022-08-02T04:42:55.836Z,20.6
2022-08-02T04:43:55.827Z,20.58
2022-08-02T04:44:55.833Z,20.55
2022-08-02T04:45:55.847Z,20.51
2022-08-02T04:46:55.856Z,20.47
2022-08-02T04:48:04.438Z,20.47
2022-08-02T04:48:55.878Z,20.45
2022-08-02T04:49:55.823Z,20.42
2022-08-02T04:50:55.828Z,20.42
2022-08-02T04:51:55.832Z,20.38
2022-08-02T04:52:55.835Z,20.28
2022-08-02T04:53:55.822Z,20.3
2022-08-02T04:54:55.834Z,20.3
2022-08-02T04:55:55.827Z,20.34
2022-08-02T04:56:55.854Z,20.34
2022-08-02T04:57:55.848Z,20.33
2022-08-02T04:58:55.846Z,20.31
2022-08-02T04:59:55.840Z,20.31
2022-08-02T05:00:55.953Z,20.27
2022-08-02T05:01:55.999Z,20.22
2022-08-02T05:02:55.855Z,20.14
2022-08-02T05:03:55.849Z,19.94
2022-08-02T05:04:55.843Z,19.88
2022-08-02T05:05:55.824Z,19.92
2022-08-02T05:06:55.840Z,19.96
2022-08-02T05:07:55.824Z,17.69
2022-08-02T05:08:55.815Z,17.72
2022-08-02T05:09:55.817Z,17.76
2022-08-02T05:10:55.820Z,17.83
2022-08-02T05:11:55.845Z,17.86
2022-08-02T05:12:55.824Z,17.87
2022-08-02T05:13:57.536Z,17.86
2022-08-02T05:14:55.830Z,17.89
2022-08-02T05:15:55.839Z,18.62
2022-08-02T05:16:55.848Z,18.68
2022-08-02T05:17:55.823Z,18.67
2022-08-02T05:18:55.825Z,18.69
2022-08-02T05:19:55.834Z,18.71
2022-08-02T05:20:58.274Z,18.71
2022-08-02T05:21:55.854Z,18.73
2022-08-02T05:22:55.833Z,18.76
2022-08-02T05:23:55.833Z,18.79
2022-08-02T05:24:55.836Z,18.82
2022-08-02T05:25:55.823Z,18.84
2022-08-02T05:26:55.846Z,18.87
2022-08-02T05:27:55.824Z,19.68
2022-08-02T05:28:55.843Z,19.63
2022-08-02T05:29:57.112Z,19.65
2022-08-02T05:30:55.848Z,19.67
2022-08-02T05:31:55.839Z,19.67
2022-08-02T05:32:55.834Z,19.69
2022-08-02T05:33:55.823Z,19.71
2022-08-02T05:34:55.824Z,19.72
2022-08-02T05:35:55.831Z,19.72
2022-08-02T05:36:55.843Z,19.74
2022-08-02T05:37:55.827Z,19.78
2022-08-02T05:39:04.818Z,19.8
2022-08-02T05:39:56.440Z,19.84
2022-08-02T05:40:55.831Z,19.87
2022-08-02T05:41:55.844Z,19.91
2022-08-02T05:42:55.827Z,19.95
2022-08-02T05:43:55.827Z,19.99
2022-08-02T05:44:55.816Z,20.03
2022-08-02T05:45:55.830Z,20.06
2022-08-02T05:46:55.848Z,20.08
2022-08-02T05:47:55.817Z,20.11
2022-08-02T05:48:55.866Z,20.12
2022-08-02T05:49:55.819Z,20.12
2022-08-02T05:50:55.833Z,20.12
2022-08-02T05:51:55.846Z,20.15
2022-08-02T05:52:55.840Z,20.1
2022-08-02T05:53:55.835Z,20.1
2022-08-02T05:54:55.837Z,20.04
2022-08-02T05:55:55.833Z,20.03
2022-08-02T05:56:55.841Z,20
2022-08-02T05:57:55.832Z,19.98
2022-08-02T05:58:55.823Z,19.96
2022-08-02T05:59:55.825Z,19.95
2022-08-02T06:00:55.851Z,19.94
2022-08-02T06:01:55.900Z,19.92
2022-08-02T06:02:55.823Z,19.92
2022-08-02T06:03:56.195Z,19.92
2022-08-02T06:04:55.827Z,19.89
2022-08-02T06:05:55.829Z,19.88
2022-08-02T06:06:55.859Z,19.88
2022-08-02T06:07:55.830Z,19.87
2022-08-02T06:08:55.824Z,19.86
2022-08-02T06:09:55.829Z,19.86
2022-08-02T06:10:55.829Z,21.54
2022-08-02T06:12:02.025Z,21.52
2022-08-02T06:12:55.824Z,21.47
2022-08-02T06:13:55.826Z,21.45
2022-08-02T06:14:55.836Z,21.54
2022-08-02T06:15:55.862Z,21.52
2022-08-02T06:16:55.845Z,21.45
2022-08-02T06:17:55.832Z,21.45
2022-08-02T06:18:55.838Z,21.37
2022-08-02T06:19:55.830Z,21.38
2022-08-02T06:20:55.828Z,21.31
2022-08-02T06:22:33.525Z,21.42
2022-08-02T06:22:55.832Z,21.4
2022-08-02T06:23:57.793Z,21.41
2022-08-02T06:24:55.827Z,21.43
2022-08-02T06:25:55.925Z,21.57
2022-08-02T06:26:55.853Z,21.54
2022-08-02T06:27:55.829Z,21.53
2022-08-02T06:28:55.834Z,21.55
2022-08-02T06:29:55.833Z,21.47
2022-08-02T06:30:55.849Z,21.43
2022-08-02T06:31:55.854Z,21.37
2022-08-02T06:32:55.830Z,21.39
2022-08-02T06:33:55.842Z,21.42
2022-08-02T06:34:55.829Z,21.44
2022-08-02T06:35:55.830Z,21.59
2022-08-02T06:36:55.842Z,21.7
2022-08-02T06:37:58.917Z,21.75
2022-08-02T06:38:55.826Z,21.8
2022-08-02T06:39:55.833Z,21.91
2022-08-02T06:40:55.830Z,22.06
2022-08-02T06:41:55.871Z,22.06
2022-08-02T06:42:55.844Z,22.08
2022-08-02T06:43:55.856Z,22.12
2022-08-02T06:44:58.142Z,22.22
2022-08-02T06:45:55.869Z,22.32
2022-08-02T06:47:11.671Z,22.41
2022-08-02T06:47:55.853Z,22.56
2022-08-02T06:48:55.905Z,22.65
2022-08-02T06:49:56.037Z,22.69
2022-08-02T06:50:55.821Z,22.67
2022-08-02T06:52:53.946Z,22.78
2022-08-02T06:53:52.402Z,22.8
2022-08-02T06:54:52.371Z,22.83
2022-08-02T06:55:52.346Z,22.79
2022-08-02T06:56:52.388Z,22.85
2022-08-02T06:57:53.811Z,22.95
2022-08-02T06:58:52.299Z,22.96
2022-08-02T06:59:52.299Z,22.98
2022-08-02T07:00:52.304Z,23.02
2022-08-02T07:01:52.358Z,23.01
2022-08-02T07:02:52.330Z,23.02
2022-08-02T07:03:52.298Z,22.98
2022-08-02T07:04:52.282Z,23
2022-08-02T07:05:52.275Z,23.01
2022-08-02T07:06:52.262Z,23.1
2022-08-02T07:07:52.275Z,23.07
2022-08-02T07:09:18.416Z,23.04
2022-08-02T07:10:00.291Z,22.99
2022-08-02T07:10:52.246Z,22.96
2022-08-02T07:11:52.315Z,22.99
2022-08-02T07:12:52.311Z,22.99
2022-08-02T07:13:52.323Z,22.98
2022-08-02T07:14:52.328Z,22.98
2022-08-02T07:15:52.308Z,22.99
2022-08-02T07:16:52.325Z,23
2022-08-02T07:17:52.363Z,23
2022-08-02T07:18:52.344Z,23.03
2022-08-02T07:19:52.339Z,22.99
2022-08-02T07:20:52.311Z,23.05
2022-08-02T07:21:56.638Z,22.01
2022-08-02T07:22:52.341Z,22.13
2022-08-02T07:23:52.285Z,22.17
2022-08-02T07:24:52.270Z,22.2
2022-08-02T07:26:02.231Z,22.28
2022-08-02T07:27:10.721Z,22.28
2022-08-02T07:27:52.319Z,22.3
2022-08-02T07:28:52.275Z,22.34
2022-08-02T07:29:52.280Z,22.37
2022-08-02T07:30:52.278Z,22.42
2022-08-02T07:31:52.295Z,22.47
2022-08-02T07:32:52.294Z,22.48
2022-08-02T07:33:52.277Z,22.5
2022-08-02T07:34:53.526Z,22.52
2022-08-02T07:35:52.273Z,22.53
2022-08-02T07:36:52.286Z,22.52
2022-08-02T07:37:55.201Z,22.54
2022-08-02T07:38:52.282Z,22.58
2022-08-02T07:39:52.273Z,22.65
2022-08-02T07:40:52.289Z,22.71
2022-08-02T07:41:52.281Z,22.74
2022-08-02T07:42:52.559Z,22.78
2022-08-02T07:43:52.276Z,22.81
2022-08-02T07:44:52.278Z,22.88
2022-08-02T07:45:57.195Z,22.99
2022-08-02T07:46:52.300Z,22.99
2022-08-02T07:47:52.304Z,23.23
2022-08-02T07:48:52.344Z,23.34
2022-08-02T07:49:52.281Z,23.48
2022-08-02T07:50:52.274Z,23.59
2022-08-02T07:51:52.286Z,23.71
2022-08-02T07:52:57.262Z,23.86
2022-08-02T07:54:03.857Z,23.98
2022-08-02T07:54:52.276Z,24.11
2022-08-02T07:55:52.275Z,24.2
2022-08-02T07:56:58.383Z,24.29
2022-08-02T07:57:52.298Z,24.36
2022-08-02T07:58:52.282Z,24.4
2022-08-02T07:59:52.287Z,24.41
2022-08-02T08:00:52.290Z,24.47
2022-08-02T08:01:52.428Z,24.51
2022-08-02T08:02:56.226Z,24.51
2022-08-02T08:03:52.312Z,24.54
2022-08-02T08:04:52.281Z,24.52
2022-08-02T08:05:52.298Z,24.47
2022-08-02T08:06:52.275Z,24.43
2022-08-02T08:07:52.324Z,24.36
2022-08-02T08:08:52.282Z,24.37
2022-08-02T08:09:56.651Z,24.22
2022-08-02T08:10:52.288Z,24.11
2022-08-02T08:11:52.281Z,24
2022-08-02T08:12:52.331Z,23.83
2022-08-02T08:13:52.295Z,23.67
2022-08-02T08:14:52.279Z,23.57
2022-08-02T08:15:52.727Z,23.55
2022-08-02T08:16:52.337Z,23.48
2022-08-02T08:17:52.300Z,23.5
2022-08-02T08:18:52.274Z,23.47
2022-08-02T08:19:52.825Z,23.49
2022-08-02T08:20:52.274Z,23.52
2022-08-02T08:21:52.273Z,23.57
2022-08-02T08:22:52.291Z,23.61
2022-08-02T08:23:52.289Z,23.64
2022-08-02T08:24:52.270Z,23.64
2022-08-02T08:25:52.283Z,23.84
2022-08-02T08:26:52.284Z,23.84
2022-08-02T08:27:52.361Z,24.01
2022-08-02T08:28:52.294Z,24.13
2022-08-02T08:29:52.295Z,24.24
2022-08-02T08:30:52.294Z,24.34
2022-08-02T08:31:52.334Z,24.41
2022-08-02T08:32:52.335Z,24.44
2022-08-02T08:33:52.299Z,24.51
2022-08-02T08:34:52.276Z,24.62
2022-08-02T08:35:52.267Z,24.65
2022-08-02T08:36:52.271Z,24.81
2022-08-02T08:37:52.299Z,24.94
2022-08-02T08:38:52.269Z,25.01
2022-08-02T08:39:57.874Z,25.18
2022-08-02T08:40:52.258Z,25.32
2022-08-02T08:41:52.277Z,25.32
2022-08-02T08:42:52.289Z,25.58
2022-08-02T08:43:53.467Z,25.62
2022-08-02T08:44:52.271Z,25.58
2022-08-02T08:45:56.191Z,25.38
2022-08-02T08:46:52.288Z,25
2022-08-02T08:47:52.310Z,25
2022-08-02T08:48:52.342Z,25
2022-08-02T08:49:53.217Z,24.58
2022-08-02T08:50:52.271Z,24.55
2022-08-02T08:51:52.273Z,24.59
2022-08-02T08:52:52.294Z,24.65
2022-08-02T08:53:52.274Z,24.71
2022-08-02T08:54:52.262Z,24.91
2022-08-02T08:55:52.271Z,25
2022-08-02T08:56:52.267Z,25.1
2022-08-02T08:57:52.281Z,25.22
2022-08-02T08:58:52.268Z,25.32
2022-08-02T08:59:52.271Z,25.35
2022-08-02T09:00:52.394Z,25.41
2022-08-02T09:01:52.331Z,25.54
2022-08-02T09:02:52.286Z,25.46
2022-08-02T09:03:52.268Z,25.46
2022-08-02T09:04:55.005Z,25.46
2022-08-02T09:05:52.281Z,25.44
2022-08-02T09:06:52.272Z,25.54
2022-08-02T09:07:52.299Z,25.58
2022-08-02T09:08:52.272Z,25.62
2022-08-02T09:09:52.276Z,25.66
2022-08-02T09:10:52.270Z,25.7
2022-08-02T09:11:52.275Z,25.73
2022-08-02T09:12:52.315Z,25.79
2022-08-02T09:13:52.267Z,25.83
2022-08-02T09:14:52.271Z,25.89
2022-08-02T09:15:52.268Z,25.92
2022-08-02T09:16:52.304Z,25.94
2022-08-02T09:17:52.310Z,25.87
2022-08-02T09:18:52.263Z,25.87
2022-08-02T09:19:52.277Z,25.89
2022-08-02T09:20:52.273Z,25.87
2022-08-02T09:21:52.269Z,25.97
2022-08-02T09:22:52.315Z,25.83
2022-08-02T09:23:52.274Z,25.76
2022-08-02T09:24:52.273Z,25.74
2022-08-02T09:25:59.086Z,25.76
2022-08-02T09:26:52.278Z,25.76
2022-08-02T09:27:52.286Z,25.96
2022-08-02T09:28:52.304Z,26.01
2022-08-02T09:30:12.172Z,25.96
2022-08-02T09:30:52.298Z,25.89
2022-08-02T09:31:52.296Z,25.86
2022-08-02T09:32:52.289Z,25.92
2022-08-02T09:33:52.268Z,25.92
2022-08-02T09:34:52.267Z,25.86
2022-08-02T09:36:06.287Z,25.87
2022-08-02T09:36:54.451Z,25.99
2022-08-02T09:37:52.285Z,26.06
2022-08-02T09:38:52.270Z,26.06
2022-08-02T09:39:52.270Z,26.01
2022-08-02T09:40:52.269Z,26.07
2022-08-02T09:41:52.268Z,26.04
2022-08-02T09:42:52.280Z,26.04
2022-08-02T09:44:03.365Z,25.97
2022-08-02T09:44:52.277Z,25.76
2022-08-02T09:45:52.287Z,25.58
2022-08-02T09:46:52.286Z,25.38
2022-08-02T09:47:52.309Z,25.3
2022-08-02T09:48:52.919Z,25.29
2022-08-02T09:49:52.815Z,25.32
2022-08-02T09:50:52.264Z,25.35
2022-08-02T09:51:52.267Z,25.39
2022-08-02T09:52:52.290Z,25.41
2022-08-02T09:53:58.557Z,25.44
2022-08-02T09:54:52.268Z,25.43
2022-08-02T09:55:52.269Z,25.44
2022-08-02T09:56:52.283Z,25.49
2022-08-02T09:57:52.288Z,25.47
2022-08-02T09:58:52.271Z,25.52
2022-08-02T09:59:52.307Z,25.58
2022-08-02T10:00:52.890Z,25.68
2022-08-02T10:02:01.209Z,25.81
2022-08-02T10:02:52.293Z,25.94
2022-08-02T10:03:52.267Z,26.04
2022-08-02T10:04:54.121Z,26.24
2022-08-02T10:05:55.706Z,26.29
2022-08-02T10:06:52.271Z,26.48
2022-08-02T10:07:52.302Z,26.68
2022-08-02T10:08:52.278Z,26.91
2022-08-02T10:09:52.267Z,27.17
2022-08-02T10:10:52.267Z,27.37
2022-08-02T10:11:52.269Z,27.64
2022-08-02T10:12:52.288Z,27.76
2022-08-02T10:13:52.265Z,27.76
2022-08-02T10:14:52.271Z,27.85
2022-08-02T10:15:52.274Z,28.07
2022-08-02T10:16:52.293Z,29.1
2022-08-02T10:17:52.314Z,28.19
2022-08-02T10:18:52.273Z,28.39
2022-08-02T10:20:03.101Z,28.58
2022-08-02T10:20:52.294Z,28.68
2022-08-02T10:21:52.274Z,28.78
2022-08-02T10:22:52.286Z,28.83
2022-08-02T10:23:52.268Z,28.87
2022-08-02T10:24:52.278Z,28.72
2022-08-02T10:25:52.270Z,28.72
2022-08-02T10:26:52.272Z,28.76
2022-08-02T10:28:04.205Z,28.89
2022-08-02T10:28:52.275Z,28.93
2022-08-02T10:29:55.000Z,28.99
2022-08-02T10:30:52.278Z,29.1
2022-08-02T10:31:52.302Z,29.1
2022-08-02T10:32:52.293Z,29.06
2022-08-02T10:33:52.274Z,28.85
2022-08-02T10:34:52.275Z,28.7
2022-08-02T10:36:06.936Z,28.7
2022-08-02T10:36:52.270Z,28.58
2022-08-02T10:37:52.296Z,28.58
2022-08-02T10:38:52.277Z,28.64
2022-08-02T10:39:52.270Z,28.74
2022-08-02T10:40:52.283Z,28.87
2022-08-02T10:41:52.273Z,28.87
2022-08-02T10:42:52.288Z,29.06
2022-08-02T10:43:52.276Z,29.21
2022-08-02T10:44:52.286Z,29.34
2022-08-02T10:45:52.269Z,29.49
2022-08-02T10:46:52.286Z,29.73
2022-08-02T10:47:52.312Z,29.95
2022-08-02T10:48:52.316Z,30.09
2022-08-02T10:49:52.344Z,30.31
2022-08-02T10:50:52.276Z,30.47
2022-08-02T10:51:52.287Z,30.5
2022-08-02T10:52:52.298Z,30.27
2022-08-02T10:53:52.271Z,30.31
2022-08-02T10:54:56.187Z,30.09
2022-08-02T10:55:52.277Z,29.93
2022-08-02T10:56:52.287Z,29.71
2022-08-02T10:57:52.299Z,29.57
2022-08-02T10:58:52.287Z,29.77
2022-08-02T10:59:52.298Z,30
2022-08-02T11:00:52.369Z,30.22
2022-08-02T11:01:52.306Z,30.22
2022-08-02T11:02:53.250Z,30.68
2022-08-02T11:03:52.284Z,30.87
2022-08-02T11:04:52.263Z,30.94
2022-08-02T11:05:52.261Z,30.99
2022-08-02T11:06:52.266Z,30.99
2022-08-02T11:07:52.286Z,30.87
2022-08-02T11:08:52.264Z,30.92
2022-08-02T11:09:52.257Z,30.89
2022-08-02T11:10:52.255Z,30.94
2022-08-02T11:11:53.977Z,31.13
2022-08-02T11:12:52.289Z,31.32
2022-08-02T11:13:52.277Z,31.25
2022-08-02T11:14:55.013Z,31.42
2022-08-02T11:15:52.299Z,31.44
2022-08-02T11:16:52.294Z,31.56
2022-08-02T11:17:52.297Z,31.61
2022-08-02T11:18:52.286Z,31.64
2022-08-02T11:19:52.274Z,31.23
2022-08-02T11:20:52.274Z,30.78
2022-08-02T11:21:52.264Z,30.38
2022-08-02T11:22:52.282Z,29.97
2022-08-02T11:23:52.265Z,29.55
2022-08-02T11:24:52.265Z,29.27
2022-08-02T11:26:03.650Z,29.16
2022-08-02T11:26:52.273Z,29.04
2022-08-02T11:27:52.298Z,28.91
2022-08-02T11:28:52.272Z,28.64
2022-08-02T11:29:52.272Z,28.41
2022-08-02T11:30:52.278Z,28.25
2022-08-02T11:31:52.289Z,28.21
2022-08-02T11:32:52.288Z,28.21
2022-08-02T11:33:52.277Z,28.25
2022-08-02T11:34:52.284Z,28.27
2022-08-02T11:35:52.269Z,28.17
2022-08-02T11:36:52.277Z,28.11
2022-08-02T11:37:52.294Z,28.17
2022-08-02T11:38:52.274Z,28.23
2022-08-02T11:39:52.268Z,28.25
2022-08-02T11:40:57.438Z,28.29
2022-08-02T11:41:52.276Z,28.31
2022-08-02T11:42:52.287Z,28.31
2022-08-02T11:43:52.273Z,28.37
2022-08-02T11:44:52.272Z,28.39
2022-08-02T11:45:52.273Z,28.49
2022-08-02T11:46:52.287Z,28.47
2022-08-02T11:47:52.446Z,28.56
2022-08-02T11:48:52.331Z,28.62
2022-08-02T11:49:52.275Z,28.62
2022-08-02T11:50:52.277Z,28.76
2022-08-02T11:51:54.167Z,28.78
2022-08-02T11:52:52.351Z,28.85
2022-08-02T11:53:52.291Z,28.97
2022-08-02T11:54:52.275Z,29.04
2022-08-02T11:55:52.272Z,29.16
2022-08-02T11:56:52.289Z,29.34
2022-08-02T11:58:03.420Z,29.53
2022-08-02T11:58:52.284Z,29.77
2022-08-02T11:59:52.276Z,30.06
2022-08-02T12:00:52.279Z,30.34
2022-08-02T12:01:52.288Z,30.57
2022-08-02T12:02:52.387Z,30.92
2022-08-02T12:03:52.380Z,31.18
2022-08-02T12:04:52.288Z,31.3
2022-08-02T12:06:04.418Z,31.37
2022-08-02T12:06:52.275Z,31.37
2022-08-02T12:07:52.296Z,31.06
2022-08-02T12:08:54.501Z,31.03
2022-08-02T12:09:52.276Z,31.08
2022-08-02T12:10:52.278Z,31.11
2022-08-02T12:11:52.295Z,30.92
2022-08-02T12:12:54.290Z,30.99
2022-08-02T12:13:56.603Z,30.89
2022-08-02T12:14:52.288Z,30.68
2022-08-02T12:15:52.270Z,30.68
2022-08-02T12:16:52.314Z,30.73
2022-08-02T12:17:52.287Z,30.94
2022-08-02T12:18:52.293Z,31.11
2022-08-02T12:19:52.268Z,31.32
2022-08-02T12:20:52.274Z,31.54
2022-08-02T12:21:52.271Z,31.73
2022-08-02T12:22:52.302Z,31.81
2022-08-02T12:23:59.723Z,31.91
2022-08-02T12:24:52.270Z,32.16
2022-08-02T12:25:52.274Z,32.33
2022-08-02T12:26:52.292Z,32.51
2022-08-02T12:27:53.457Z,32.53
2022-08-02T12:28:52.275Z,32.64
2022-08-02T12:29:57.676Z,32.79
2022-08-02T12:30:52.273Z,32.97
2022-08-02T12:31:55.931Z,33.1
2022-08-02T12:32:52.298Z,33.15
2022-08-02T12:33:52.267Z,33.13
2022-08-02T12:34:52.268Z,33.1
2022-08-02T12:35:52.283Z,33.13
2022-08-02T12:36:52.307Z,33.26
2022-08-02T12:37:52.300Z,33.05
2022-08-02T12:38:52.266Z,32.69
2022-08-02T12:39:52.273Z,32.53
2022-08-02T12:40:52.265Z,31.91
2022-08-02T12:41:55.147Z,31.73
2022-08-02T12:42:52.289Z,31.3
2022-08-02T12:43:52.264Z,30.78
2022-08-02T12:44:52.273Z,30.57
2022-08-02T12:45:52.281Z,30.38
2022-08-02T12:46:52.297Z,30.22
2022-08-02T12:47:52.315Z,30.02
2022-08-02T12:49:08.378Z,30.09
2022-08-02T12:49:52.382Z,30.27
2022-08-02T12:50:52.277Z,30.43
2022-08-02T12:51:59.998Z,30.47
2022-08-02T12:52:52.286Z,30.5
2022-08-02T12:53:59.766Z,30.64
2022-08-02T12:54:52.277Z,30.85
2022-08-02T12:56:00.753Z,30.94
2022-08-02T12:56:52.276Z,31.08
2022-08-02T12:57:52.282Z,31.3